createdAt,value
2023-04-22T00:01:36.437Z,94231.59
2023-04-22T00:04:04.425Z,94233.84
2023-04-22T00:06:32.687Z,94235.97
2023-04-22T00:09:00.685Z,94232.41
2023-04-22T00:11:30.018Z,94231.06
2023-04-22T00:13:57.944Z,94238.16
2023-04-22T00:16:26.458Z,94230.00
2023-04-22T00:18:54.595Z,94233.06
2023-04-22T00:21:22.495Z,94219.16
2023-04-22T00:23:50.481Z,94230.78
2023-04-22T00:26:18.438Z,94239.38
2023-04-22T00:28:47.795Z,94230.41
2023-04-22T00:31:15.813Z,94233.22
2023-04-22T00:33:43.775Z,94240.66
2023-04-22T00:36:11.810Z,94237.78
2023-04-22T00:38:40.046Z,94237.28
2023-04-22T00:41:09.386Z,94235.84
2023-04-22T00:43:37.334Z,94245.44
2023-04-22T00:46:07.475Z,94239.63
2023-04-22T00:48:36.880Z,94239.22
2023-04-22T00:51:05.055Z,94248.50
2023-04-22T00:53:33.217Z,94250.75
2023-04-22T00:56:01.169Z,94254.06
2023-04-22T00:58:30.647Z,94250.69
2023-04-22T01:00:59.342Z,94253.28
2023-04-22T01:03:30.927Z,94251.22
2023-04-22T01:05:59.304Z,94251.56
2023-04-22T01:08:30.784Z,94256.25
2023-04-22T01:10:58.861Z,94254.81
2023-04-22T01:13:26.884Z,94258.06
2023-04-22T01:15:55.825Z,94251.94
2023-04-22T01:18:23.985Z,94249.19
2023-04-22T01:20:53.380Z,94252.28
2023-04-22T01:23:23.502Z,94246.97
2023-04-22T01:25:51.454Z,94250.69
2023-04-22T01:28:19.396Z,94241.63
2023-04-22T01:30:47.473Z,94247.13
2023-04-22T01:33:16.562Z,94242.09
2023-04-22T01:35:44.672Z,94243.59
2023-04-22T01:38:14.062Z,94243.72
2023-04-22T01:40:43.359Z,94235.16
2023-04-22T01:43:11.279Z,94235.78
2023-04-22T01:45:39.273Z,94237.44
2023-04-22T01:48:07.981Z,94237.75
2023-04-22T01:50:36.096Z,94231.75
2023-04-22T01:53:04.197Z,94235.28
2023-04-22T01:55:36.087Z,94236.88
2023-04-22T01:58:06.414Z,94232.66
2023-04-22T02:00:34.521Z,94238.44
2023-04-22T02:03:02.535Z,94236.03
2023-04-22T02:05:30.656Z,94241.50
2023-04-22T02:07:58.982Z,94237.63
2023-04-22T02:10:26.935Z,94235.63
2023-04-22T02:12:54.960Z,94236.59
2023-04-22T02:15:24.261Z,94229.91
2023-04-22T02:17:53.107Z,94242.91
2023-04-22T02:20:21.040Z,94237.91
2023-04-22T02:22:50.709Z,94243.47
2023-04-22T02:25:19.164Z,94239.25
2023-04-22T02:27:47.098Z,94235.03
2023-04-22T02:30:15.137Z,94235.06
2023-04-22T02:32:44.408Z,94238.91
2023-04-22T02:35:12.513Z,94243.28
2023-04-22T02:37:40.640Z,94237.97
2023-04-22T02:40:09.828Z,94237.63
2023-04-22T02:42:37.719Z,94245.69
2023-04-22T02:45:06.701Z,94241.50
2023-04-22T02:47:34.681Z,94249.25
2023-04-22T02:50:04.000Z,94247.34
2023-04-22T02:52:32.017Z,94251.88
2023-04-22T02:54:59.983Z,94244.94
2023-04-22T02:57:27.974Z,94252.53
2023-04-22T02:59:57.080Z,94248.38
2023-04-22T03:02:25.209Z,94253.19
2023-04-22T03:04:54.470Z,94253.50
2023-04-22T03:07:23.796Z,94250.59
2023-04-22T03:09:52.774Z,94252.88
2023-04-22T03:12:20.957Z,94252.91
2023-04-22T03:14:48.970Z,94256.97
2023-04-22T03:17:16.969Z,94262.28
2023-04-22T03:19:44.940Z,94264.25
2023-04-22T03:22:12.823Z,94261.97
2023-04-22T03:24:42.053Z,94257.31
2023-04-22T03:27:11.605Z,94250.03
2023-04-22T03:29:39.676Z,94265.56
2023-04-22T03:32:07.901Z,94258.28
2023-04-22T03:34:37.260Z,94271.72
2023-04-22T03:37:05.507Z,94267.00
2023-04-22T03:39:33.402Z,94269.78
2023-04-22T03:42:02.731Z,94272.53
2023-04-22T03:44:30.653Z,94272.06
2023-04-22T03:46:58.562Z,94274.31
2023-04-22T03:49:27.208Z,94277.88
2023-04-22T03:51:55.011Z,94271.41
2023-04-22T03:54:22.905Z,94282.09
2023-04-22T03:56:50.861Z,94281.94
2023-04-22T03:59:22.573Z,94279.53
2023-04-22T04:01:52.890Z,94283.41
2023-04-22T04:04:21.000Z,94285.66
2023-04-22T04:06:49.180Z,94280.13
2023-04-22T04:09:17.224Z,94292.28
2023-04-22T04:11:45.331Z,94298.56
2023-04-22T04:14:16.417Z,94285.66
2023-04-22T04:16:46.194Z,94294.03
2023-04-22T04:19:14.188Z,94283.69
2023-04-22T04:21:42.325Z,94284.03
2023-04-22T04:24:13.191Z,94299.53
2023-04-22T04:26:41.573Z,94291.41
2023-04-22T04:29:09.601Z,94295.31
2023-04-22T04:31:37.573Z,94306.47
2023-04-22T04:34:07.379Z,94306.16
2023-04-22T04:36:35.519Z,94305.50
2023-04-22T04:39:04.247Z,94303.41
2023-04-22T04:41:33.300Z,94306.28
2023-04-22T04:44:01.588Z,94318.28
2023-04-22T04:46:31.497Z,94320.88
2023-04-22T04:49:00.215Z,94318.28
2023-04-22T04:51:29.490Z,94323.47
2023-04-22T04:53:57.445Z,94332.81
2023-04-22T04:56:25.501Z,94334.78
2023-04-22T04:58:53.480Z,94333.31
2023-04-22T05:01:21.485Z,94333.13
2023-04-22T05:03:49.724Z,94333.78
2023-04-22T05:06:17.799Z,94326.66
2023-04-22T05:08:47.380Z,94345.56
2023-04-22T05:11:15.372Z,94334.53
2023-04-22T05:13:43.377Z,94344.03
2023-04-22T05:16:11.381Z,94346.81
2023-04-22T05:18:40.729Z,94332.34
2023-04-22T05:21:08.745Z,94351.09
2023-04-22T05:23:36.679Z,94340.22
2023-04-22T05:26:06.037Z,94351.38
2023-04-22T05:28:33.998Z,94342.75
2023-04-22T05:31:01.952Z,94350.53
2023-04-22T05:33:29.820Z,94355.03
2023-04-22T05:35:57.846Z,94353.53
2023-04-22T05:38:25.846Z,94356.69
2023-04-22T05:40:53.720Z,94349.38
2023-04-22T05:43:23.064Z,94351.00
2023-04-22T05:45:51.038Z,94354.69
2023-04-22T05:48:19.084Z,94355.06
2023-04-22T05:50:47.234Z,94349.22
2023-04-22T05:53:15.517Z,94350.63
2023-04-22T05:55:43.407Z,94349.28
2023-04-22T05:58:11.518Z,94355.88
2023-04-22T06:00:41.187Z,94360.03
2023-04-22T06:03:09.297Z,94352.34
2023-04-22T06:05:37.490Z,94350.03
2023-04-22T06:08:05.603Z,94352.94
2023-04-22T06:10:33.581Z,94356.78
2023-04-22T06:13:01.490Z,94351.72
2023-04-22T06:15:29.951Z,94347.44
2023-04-22T06:17:59.377Z,94335.13
2023-04-22T06:20:27.379Z,94349.00
2023-04-22T06:22:55.317Z,94344.69
2023-04-22T06:25:23.650Z,94348.09
2023-04-22T06:27:51.666Z,94353.81
2023-04-22T06:30:19.784Z,94359.47
2023-04-22T06:32:47.706Z,94359.03
2023-04-22T06:35:17.221Z,94352.31
2023-04-22T06:37:45.390Z,94362.25
2023-04-22T06:40:13.939Z,94358.44
2023-04-22T06:42:42.311Z,94352.50
2023-04-22T06:45:13.155Z,94356.22
2023-04-22T06:47:41.352Z,94361.88
2023-04-22T06:50:10.683Z,94348.75
2023-04-22T06:52:41.048Z,94359.13
2023-04-22T06:55:09.499Z,94354.66
2023-04-22T06:57:37.631Z,94365.28
2023-04-22T07:00:06.328Z,94361.31
2023-04-22T07:02:34.304Z,94357.59
2023-04-22T07:05:02.294Z,94355.34
2023-04-22T07:07:30.503Z,94353.00
2023-04-22T07:09:59.776Z,94368.94
2023-04-22T07:12:27.834Z,94365.16
2023-04-22T07:14:56.282Z,94365.91
2023-04-22T07:17:24.593Z,94369.84
2023-04-22T07:19:53.526Z,94362.06
2023-04-22T07:22:21.612Z,94367.09
2023-04-22T07:24:49.608Z,94333.75
2023-04-22T07:27:19.092Z,94368.06
2023-04-22T07:29:47.196Z,94372.53
2023-04-22T07:32:17.293Z,94372.00
2023-04-22T07:34:45.723Z,94365.63
2023-04-22T07:37:13.703Z,94366.72
2023-04-22T07:39:41.936Z,94370.28
2023-04-22T07:42:10.146Z,94371.38
2023-04-22T07:44:39.711Z,94369.09
2023-04-22T07:47:08.751Z,94351.69
2023-04-22T07:49:36.704Z,94355.94
2023-04-22T07:52:06.062Z,94360.41
2023-04-22T07:54:33.989Z,94363.00
2023-04-22T07:57:01.838Z,94359.41
2023-04-22T07:59:29.729Z,94365.22
2023-04-22T08:01:59.141Z,94362.81
2023-04-22T08:04:27.290Z,94365.63
2023-04-22T08:06:56.374Z,94364.13
2023-04-22T08:09:24.613Z,94360.00
2023-04-22T08:11:53.798Z,94348.69
2023-04-22T08:14:21.743Z,94346.34
2023-04-22T08:16:49.779Z,94353.00
2023-04-22T08:19:20.071Z,94351.75
2023-04-22T08:21:48.556Z,94352.19
2023-04-22T08:24:16.544Z,94341.13
2023-04-22T08:26:44.507Z,94351.38
2023-04-22T08:29:12.606Z,94337.72
2023-04-22T08:31:40.887Z,94338.53
2023-04-22T08:34:08.847Z,94334.88
2023-04-22T08:36:38.142Z,94334.47
2023-04-22T08:39:06.023Z,94333.47
2023-04-22T08:41:35.889Z,94326.22
2023-04-22T08:44:04.290Z,94321.56
2023-04-22T08:46:32.440Z,94317.72
2023-04-22T08:49:03.899Z,94324.81
2023-04-22T08:51:33.614Z,94308.34
2023-04-22T08:54:02.947Z,94308.28
2023-04-22T08:56:32.586Z,94315.06
2023-04-22T08:59:00.910Z,94304.66
2023-04-22T09:01:32.397Z,94310.28
2023-04-22T09:04:01.248Z,94301.97
2023-04-22T09:06:29.394Z,94307.97
2023-04-22T09:08:59.229Z,94316.06
2023-04-22T09:11:29.912Z,94308.25
2023-04-22T09:13:57.923Z,94306.41
2023-04-22T09:16:26.011Z,94308.03
2023-04-22T09:18:53.950Z,94298.94
2023-04-22T09:21:22.214Z,94305.56
2023-04-22T09:23:51.803Z,94303.19
2023-04-22T09:26:20.978Z,94300.09
2023-04-22T09:28:55.941Z,94292.38
2023-04-22T09:31:24.339Z,94289.03
2023-04-22T09:33:54.770Z,94287.34
2023-04-22T09:36:27.876Z,94280.00
2023-04-22T09:38:59.518Z,94280.00
2023-04-22T09:41:30.775Z,94278.44
2023-04-22T09:44:01.625Z,94281.13
2023-04-22T09:46:30.890Z,94289.19
2023-04-22T09:49:00.044Z,94282.41
2023-04-22T09:51:29.292Z,94285.50
2023-04-22T09:54:01.832Z,94270.03
2023-04-22T09:56:48.375Z,94268.81
2023-04-22T09:59:22.217Z,94280.25
2023-04-22T10:01:51.084Z,94272.88
2023-04-22T10:04:21.536Z,94268.66
2023-04-22T10:06:50.225Z,94284.38
2023-04-22T10:09:21.430Z,94273.88
2023-04-22T10:11:50.766Z,94284.16
2023-04-22T10:14:20.059Z,94272.59
2023-04-22T10:16:49.174Z,94262.53
2023-04-22T10:19:21.972Z,94267.84
2023-04-22T10:21:54.711Z,94266.75
2023-04-22T10:24:22.722Z,94265.97
2023-04-22T10:26:53.080Z,94273.47
2023-04-22T10:29:23.658Z,94263.91
2023-04-22T10:31:58.403Z,94259.03
2023-04-22T10:34:26.601Z,94252.31
2023-04-22T10:37:02.003Z,94255.63
2023-04-22T10:39:30.808Z,94243.66
2023-04-22T10:42:06.835Z,94249.72
2023-04-22T10:44:55.285Z,94245.13
2023-04-22T10:47:27.528Z,94246.16
2023-04-22T10:50:11.501Z,94254.03
2023-04-22T10:52:40.165Z,94246.19
2023-04-22T10:55:09.091Z,94251.34
2023-04-22T10:57:41.827Z,94251.56
2023-04-22T11:00:23.695Z,94234.53
2023-04-22T11:03:07.596Z,94237.06
2023-04-22T11:05:35.948Z,94237.84
2023-04-22T11:08:05.338Z,94242.31
2023-04-22T11:10:43.073Z,94239.13
2023-04-22T11:13:14.047Z,94228.69
2023-04-22T11:15:44.836Z,94240.03
2023-04-22T11:18:19.451Z,94237.91
2023-04-22T11:20:49.463Z,94232.44
2023-04-22T11:23:26.494Z,94245.72
2023-04-22T11:25:58.979Z,94251.06
2023-04-22T11:28:27.323Z,94260.94
2023-04-22T11:31:03.108Z,94255.59
2023-04-22T11:33:31.043Z,94276.91
2023-04-22T11:35:58.973Z,94269.66
2023-04-22T11:38:26.842Z,94278.47
2023-04-22T11:40:57.829Z,94268.31
2023-04-22T11:43:26.057Z,94275.25
2023-04-22T11:45:58.493Z,94290.25
2023-04-22T11:48:26.810Z,94283.63
2023-04-22T11:51:09.800Z,94288.72
2023-04-22T11:53:39.624Z,94285.25
2023-04-22T11:56:07.582Z,94295.75
2023-04-22T11:58:40.281Z,94299.03
2023-04-22T12:01:14.792Z,94310.13
2023-04-22T12:03:43.102Z,94296.34
2023-04-22T12:06:11.088Z,94294.63
2023-04-22T12:08:42.432Z,94301.63
2023-04-22T12:11:12.148Z,94306.84
2023-04-22T12:13:43.679Z,94302.44
2023-04-22T12:16:14.765Z,94302.53
2023-04-22T12:18:51.037Z,94309.44
2023-04-22T12:21:20.629Z,94302.38
2023-04-22T12:23:50.335Z,94296.28
2023-04-22T12:26:19.692Z,94301.94
2023-04-22T12:28:48.024Z,94299.72
2023-04-22T12:31:19.171Z,94300.28
2023-04-22T12:33:47.943Z,94293.56
2023-04-22T12:36:16.159Z,94297.34
2023-04-22T12:38:44.103Z,94307.97
2023-04-22T12:41:12.077Z,94285.09
2023-04-22T12:43:40.132Z,94289.13
2023-04-22T12:46:09.242Z,94285.44
2023-04-22T12:48:38.722Z,94294.59
2023-04-22T12:51:07.746Z,94267.72
2023-04-22T12:53:35.945Z,94285.50
2023-04-22T12:56:04.259Z,94281.47
2023-04-22T12:58:32.288Z,94287.00
2023-04-22T13:01:00.196Z,94284.94
2023-04-22T13:03:28.481Z,94286.66
2023-04-22T13:05:58.077Z,94284.06
2023-04-22T13:08:26.210Z,94287.31
2023-04-22T13:10:54.214Z,94279.88
2023-04-22T13:13:22.182Z,94279.63
2023-04-22T13:15:53.301Z,94277.09
2023-04-22T13:18:22.530Z,94282.94
2023-04-22T13:20:51.278Z,94276.84
2023-04-22T13:23:21.933Z,94274.56
2023-04-22T13:25:50.426Z,94281.19
2023-04-22T13:28:18.340Z,94279.50
2023-04-22T13:30:46.336Z,94274.44
2023-04-22T13:33:14.411Z,94282.69
2023-04-22T13:35:43.007Z,94277.78
2023-04-22T13:38:10.987Z,94271.34
2023-04-22T13:40:40.339Z,94281.56
2023-04-22T13:43:10.129Z,94279.03
2023-04-22T13:45:38.127Z,94278.09
2023-04-22T13:48:07.359Z,94279.75
2023-04-22T13:50:35.416Z,94285.63
2023-04-22T13:53:04.873Z,94287.41
2023-04-22T13:55:34.372Z,94280.44
2023-04-22T13:58:05.481Z,94275.44
2023-04-22T14:00:33.690Z,94278.72
2023-04-22T14:03:02.547Z,94274.50
2023-04-22T14:05:30.912Z,94272.44
2023-04-22T14:08:01.159Z,94269.22
2023-04-22T14:10:29.256Z,94283.03
2023-04-22T14:12:57.296Z,94284.47
2023-04-22T14:15:26.948Z,94268.78
2023-04-22T14:17:54.886Z,94277.66
2023-04-22T14:20:25.159Z,94276.16
2023-04-22T14:22:53.208Z,94268.72
2023-04-22T14:25:21.335Z,94249.63
2023-04-22T14:27:49.315Z,94263.03
2023-04-22T14:30:18.017Z,94245.22
2023-04-22T14:32:47.429Z,94262.47
2023-04-22T14:35:15.421Z,94265.59
2023-04-22T14:37:45.131Z,94260.34
2023-04-22T14:40:13.463Z,94263.47
2023-04-22T14:42:47.962Z,94263.53
2023-04-22T14:45:16.028Z,94250.13
2023-04-22T14:47:46.260Z,94257.84
2023-04-22T14:50:15.833Z,94262.78
2023-04-22T14:52:46.173Z,94264.22
2023-04-22T14:55:23.215Z,94262.59
2023-04-22T14:57:56.909Z,94264.28
2023-04-22T15:00:25.408Z,94266.03
2023-04-22T15:03:00.061Z,94256.72
2023-04-22T15:05:29.877Z,94269.53
2023-04-22T15:07:58.773Z,94266.56
2023-04-22T15:10:29.760Z,94265.34
2023-04-22T15:13:01.567Z,94262.13
2023-04-22T15:15:33.583Z,94246.03
2023-04-22T15:18:05.470Z,94274.25
2023-04-22T15:20:37.557Z,94269.75
2023-04-22T15:23:08.514Z,94265.78
2023-04-22T15:25:41.833Z,94269.13
2023-04-22T15:28:10.048Z,94262.81
2023-04-22T15:30:38.188Z,94268.84
2023-04-22T15:33:06.245Z,94271.72
2023-04-22T15:35:37.748Z,94275.03
2023-04-22T15:38:09.214Z,94270.97
2023-04-22T15:40:37.437Z,94275.50
2023-04-22T15:43:05.544Z,94276.78
2023-04-22T15:45:40.221Z,94284.94
2023-04-22T15:48:08.285Z,94277.56
2023-04-22T15:50:38.850Z,94273.84
2023-04-22T15:53:08.455Z,94280.75
2023-04-22T15:55:36.555Z,94287.53
2023-04-22T15:58:04.999Z,94289.72
2023-04-22T16:00:43.891Z,94283.06
2023-04-22T16:03:12.002Z,94291.34
2023-04-22T16:05:44.510Z,94288.84
2023-04-22T16:08:13.474Z,94285.38
2023-04-22T16:10:45.751Z,94295.50
2023-04-22T16:13:14.245Z,94295.81
2023-04-22T16:15:42.624Z,94306.56
2023-04-22T16:18:11.021Z,94300.28
2023-04-22T16:20:39.444Z,94281.34
2023-04-22T16:23:09.527Z,94280.53
2023-04-22T16:25:37.719Z,94311.66
2023-04-22T16:28:08.920Z,94291.56
2023-04-22T16:30:37.578Z,94302.13
2023-04-22T16:33:05.646Z,94315.88
2023-04-22T16:35:33.841Z,94327.31
2023-04-22T16:38:04.797Z,94319.88
2023-04-22T16:40:47.964Z,94316.19
2023-04-22T16:43:18.729Z,94326.00
2023-04-22T16:45:49.704Z,94312.53
2023-04-22T16:48:30.827Z,94319.63
2023-04-22T16:50:58.814Z,94339.31
2023-04-22T16:53:26.808Z,94335.63
2023-04-22T16:55:56.673Z,94342.09
2023-04-22T16:58:24.928Z,94344.50
2023-04-22T17:00:52.868Z,94340.84
2023-04-22T17:03:21.336Z,94353.94
2023-04-22T17:05:49.901Z,94357.56
2023-04-22T17:08:17.942Z,94363.56
2023-04-22T17:10:46.278Z,94368.84
2023-04-22T17:13:16.148Z,94374.94
2023-04-22T17:15:44.070Z,94370.03
2023-04-22T17:18:14.290Z,94369.09
2023-04-22T17:20:42.713Z,94379.22
2023-04-22T17:23:10.613Z,94371.38
2023-04-22T17:25:38.813Z,94394.47
2023-04-22T17:28:06.788Z,94388.63
2023-04-22T17:30:36.160Z,94393.28
2023-04-22T17:33:06.007Z,94393.09
2023-04-22T17:35:33.993Z,94399.84
2023-04-22T17:38:01.974Z,94391.56
2023-04-22T17:40:30.092Z,94402.25
2023-04-22T17:42:57.989Z,94411.53
2023-04-22T17:45:26.048Z,94404.91
2023-04-22T17:47:55.423Z,94410.16
2023-04-22T17:50:25.648Z,94421.19
2023-04-22T17:52:57.389Z,94421.00
2023-04-22T17:55:25.295Z,94423.41
2023-04-22T17:57:53.223Z,94420.81
2023-04-22T18:00:22.089Z,94430.03
2023-04-22T18:02:50.253Z,94421.16
2023-04-22T18:05:19.756Z,94437.47
2023-04-22T18:07:47.776Z,94445.69
2023-04-22T18:10:15.783Z,94443.47
2023-04-22T18:12:43.864Z,94451.09
2023-04-22T18:15:12.028Z,94456.91
2023-04-22T18:17:39.975Z,94459.09
2023-04-22T18:20:17.272Z,94460.91
2023-04-22T18:22:49.801Z,94455.41
2023-04-22T18:25:17.802Z,94460.25
2023-04-22T18:27:45.828Z,94463.31
2023-04-22T18:30:14.181Z,94466.06
2023-04-22T18:32:42.340Z,94450.50
2023-04-22T18:35:11.099Z,94474.69
2023-04-22T18:37:39.065Z,94475.66
2023-04-22T18:40:10.295Z,94485.94
2023-04-22T18:42:38.637Z,94486.94
2023-04-22T18:45:08.553Z,94482.53
2023-04-22T18:47:36.529Z,94479.78
2023-04-22T18:50:04.832Z,94481.22
2023-04-22T18:52:33.242Z,94475.09
2023-04-22T18:55:01.151Z,94461.31
2023-04-22T18:57:30.697Z,94485.41
2023-04-22T18:59:58.733Z,94490.28
2023-04-22T19:02:26.965Z,94493.19
2023-04-22T19:04:55.227Z,94502.00
2023-04-22T19:07:23.176Z,94495.72
2023-04-22T19:09:51.013Z,94510.19
2023-04-22T19:12:19.713Z,94502.47
2023-04-22T19:14:49.049Z,94502.03
2023-04-22T19:17:17.240Z,94503.78
2023-04-22T19:19:45.459Z,94515.22
2023-04-22T19:22:13.851Z,94512.91
2023-04-22T19:24:42.284Z,94512.84
2023-04-22T19:27:12.485Z,94512.78
2023-04-22T19:29:41.557Z,94509.78
2023-04-22T19:32:12.194Z,94516.91
2023-04-22T19:34:40.510Z,94512.81
2023-04-22T19:37:08.633Z,94520.00
2023-04-22T19:39:36.683Z,94512.91
2023-04-22T19:42:05.156Z,94510.41
2023-04-22T19:44:33.297Z,94503.75
2023-04-22T19:47:01.370Z,94505.41
2023-04-22T19:49:32.657Z,94503.06
2023-04-22T19:52:03.411Z,94502.53
2023-04-22T19:54:32.169Z,94502.16
2023-04-22T19:57:01.762Z,94498.38
2023-04-22T19:59:31.652Z,94503.91
2023-04-22T20:02:00.518Z,94490.44
2023-04-22T20:04:30.786Z,94501.63
2023-04-22T20:07:02.594Z,94504.53
2023-04-22T20:09:32.883Z,94504.44
2023-04-22T20:12:04.998Z,94493.94
2023-04-22T20:14:33.957Z,94491.78
2023-04-22T20:17:02.366Z,94490.72
2023-04-22T20:19:32.075Z,94501.03
2023-04-22T20:22:01.792Z,94493.59
2023-04-22T20:24:31.428Z,94497.00
2023-04-22T20:26:59.464Z,94498.16
2023-04-22T20:29:27.590Z,94493.31
2023-04-22T20:31:56.562Z,94494.91
2023-04-22T20:34:24.999Z,94483.69
2023-04-22T20:36:55.029Z,94487.84
2023-04-22T20:39:23.980Z,94486.28
2023-04-22T20:41:56.292Z,94485.22
2023-04-22T20:44:24.236Z,94494.94
2023-04-22T20:46:52.209Z,94482.81
2023-04-22T20:49:20.490Z,94461.78
2023-04-22T20:51:48.474Z,94482.88
2023-04-22T20:54:28.321Z,94500.28
2023-04-22T20:56:57.939Z,94495.59
2023-04-22T20:59:25.928Z,94503.50
2023-04-22T21:01:54.747Z,94503.38
2023-04-22T21:04:23.959Z,94500.38
2023-04-22T21:06:52.831Z,94501.53
2023-04-22T21:09:24.972Z,94500.75
2023-04-22T21:11:54.726Z,94500.31
2023-04-22T21:14:26.216Z,94511.25
2023-04-22T21:17:01.344Z,94505.78
2023-04-22T21:19:33.021Z,94509.19
2023-04-22T21:22:05.122Z,94498.66
2023-04-22T21:24:36.037Z,94495.41
2023-04-22T21:27:04.410Z,94501.41
2023-04-22T21:29:34.596Z,94495.41
2023-04-22T21:32:09.458Z,94501.28
2023-04-22T21:34:38.001Z,94500.31
2023-04-22T21:37:06.893Z,94488.38
2023-04-22T21:39:36.574Z,94509.94
2023-04-22T21:42:08.329Z,94513.19
2023-04-22T21:44:39.351Z,94510.72
2023-04-22T21:47:07.443Z,94516.06
2023-04-22T21:49:35.780Z,94496.94
2023-04-22T21:52:03.738Z,94514.38
2023-04-22T21:54:31.786Z,94512.44
2023-04-22T21:57:01.456Z,94509.56
2023-04-22T21:59:29.419Z,94513.31
2023-04-22T22:01:57.478Z,94516.25
2023-04-22T22:04:25.673Z,94515.72
2023-04-22T22:06:53.729Z,94511.19
2023-04-22T22:09:22.565Z,94516.06
2023-04-22T22:11:50.560Z,94520.53
2023-04-22T22:14:19.895Z,94512.50
2023-04-22T22:16:50.010Z,94508.16
2023-04-22T22:19:18.075Z,94515.44
2023-04-22T22:21:45.966Z,94521.47
2023-04-22T22:24:13.954Z,94518.56
2023-04-22T22:26:42.937Z,94518.88
2023-04-22T22:29:15.558Z,94522.91
2023-04-22T22:31:46.623Z,94511.75
2023-04-22T22:34:14.964Z,94519.09
2023-04-22T22:36:42.873Z,94514.88
2023-04-22T22:39:14.387Z,94514.91
2023-04-22T22:41:43.922Z,94531.31
2023-04-22T22:44:12.338Z,94524.00
2023-04-22T22:46:41.380Z,94528.53
2023-04-22T22:49:11.038Z,94533.72
2023-04-22T22:51:39.075Z,94526.53
2023-04-22T22:54:07.346Z,94532.09
2023-04-22T22:56:35.299Z,94527.03
2023-04-22T22:59:03.330Z,94522.69
2023-04-22T23:01:31.344Z,94514.59
2023-04-22T23:03:59.651Z,94513.63
2023-04-22T23:06:29.074Z,94511.84
2023-04-22T23:08:57.170Z,94518.34
2023-04-22T23:11:26.206Z,94513.31
2023-04-22T23:13:54.147Z,94518.22
2023-04-22T23:16:22.857Z,94503.19
2023-04-22T23:18:53.182Z,94502.56
2023-04-22T23:21:22.385Z,94517.91
2023-04-22T23:23:53.917Z,94511.63
2023-04-22T23:26:22.359Z,94515.38
2023-04-22T23:28:50.719Z,94507.75
2023-04-22T23:31:20.469Z,94500.34
2023-04-22T23:33:50.837Z,94508.44
2023-04-22T23:36:19.562Z,94503.44
2023-04-22T23:38:47.483Z,94505.41
2023-04-22T23:41:16.690Z,94501.16
2023-04-22T23:43:44.741Z,94512.38
2023-04-22T23:46:13.339Z,94504.41
2023-04-22T23:48:41.367Z,94501.03
2023-04-22T23:51:09.501Z,94510.06
2023-04-22T23:53:38.762Z,94509.75
2023-04-22T23:56:07.554Z,94505.06
2023-04-22T23:58:37.512Z,94498.25
